sensor_id;sensor_type;location;lat;lon;timestamp;temperature;humidity
17994;DHT22;9122;48.406;9.984;2023-02-04T00:02:16;7.00;99.90
17994;DHT22;9122;48.406;9.984;2023-02-04T00:05:01;7.00;99.90
17994;DHT22;9122;48.406;9.984;2023-02-04T00:07:45;7.00;99.90
17994;DHT22;9122;48.406;9.984;2023-02-04T00:10:30;7.00;99.90
17994;DHT22;9122;48.406;9.984;2023-02-04T00:13:14;7.00;99.90
17994;DHT22;9122;48.406;9.984;2023-02-04T00:15:59;7.00;99.90
17994;DHT22;9122;48.406;9.984;2023-02-04T00:18:44;7.10;99.90
17994;DHT22;9122;48.406;9.984;2023-02-04T00:21:28;7.10;99.90
17994;DHT22;9122;48.406;9.984;2023-02-04T00:24:13;7.10;99.90
17994;DHT22;9122;48.406;9.984;2023-02-04T00:26:58;7.10;99.90
17994;DHT22;9122;48.406;9.984;2023-02-04T00:29:42;7.10;99.90
17994;DHT22;9122;48.406;9.984;2023-02-04T00:32:27;7.10;99.90
17994;DHT22;9122;48.406;9.984;2023-02-04T00:37:57;7.10;99.90
17994;DHT22;9122;48.406;9.984;2023-02-04T00:40:41;7.20;99.90
17994;DHT22;9122;48.406;9.984;2023-02-04T00:43:26;7.10;99.90
17994;DHT22;9122;48.406;9.984;2023-02-04T00:46:10;7.20;99.90
17994;DHT22;9122;48.406;9.984;2023-02-04T00:48:54;7.20;99.90
17994;DHT22;9122;48.406;9.984;2023-02-04T00:51:39;7.20;99.90
17994;DHT22;9122;48.406;9.984;2023-02-04T00:54:23;7.20;99.90
17994;DHT22;9122;48.406;9.984;2023-02-04T00:57:08;7.20;99.90
17994;DHT22;9122;48.406;9.984;2023-02-04T00:59:52;7.20;99.90
17994;DHT22;9122;48.406;9.984;2023-02-04T01:02:40;7.20;99.90
17994;DHT22;9122;48.406;9.984;2023-02-04T01:05:24;7.30;99.90
17994;DHT22;9122;48.406;9.984;2023-02-04T01:08:09;7.30;99.90
17994;DHT22;9122;48.406;9.984;2023-02-04T01:10:54;7.30;99.90
17994;DHT22;9122;48.406;9.984;2023-02-04T01:13:39;7.30;99.90
17994;DHT22;9122;48.406;9.984;2023-02-04T01:16:24;7.30;99.90
17994;DHT22;9122;48.406;9.984;2023-02-04T01:19:08;7.30;99.90
17994;DHT22;9122;48.406;9.984;2023-02-04T01:21:53;7.30;99.90
17994;DHT22;9122;48.406;9.984;2023-02-04T01:24:37;7.30;99.90
17994;DHT22;9122;48.406;9.984;2023-02-04T01:27:22;7.30;99.90
17994;DHT22;9122;48.406;9.984;2023-02-04T01:30:07;7.30;99.90
17994;DHT22;9122;48.406;9.984;2023-02-04T01:32:53;7.30;99.90
17994;DHT22;9122;48.406;9.984;2023-02-04T01:35:37;7.30;99.90
17994;DHT22;9122;48.406;9.984;2023-02-04T01:38:22;7.30;99.90
17994;DHT22;9122;48.406;9.984;2023-02-04T01:41:07;7.30;99.90
17994;DHT22;9122;48.406;9.984;2023-02-04T01:43:52;7.30;99.90
17994;DHT22;9122;48.406;9.984;2023-02-04T01:46:36;7.30;99.90
17994;DHT22;9122;48.406;9.984;2023-02-04T01:49:21;7.30;99.90
17994;DHT22;9122;48.406;9.984;2023-02-04T01:52:05;7.30;99.90
17994;DHT22;9122;48.406;9.984;2023-02-04T01:54:51;7.30;99.90
17994;DHT22;9122;48.406;9.984;2023-02-04T01:57:37;7.30;99.90
17994;DHT22;9122;48.406;9.984;2023-02-04T02:00:28;7.30;99.90
17994;DHT22;9122;48.406;9.984;2023-02-04T02:03:13;7.30;99.90
17994;DHT22;9122;48.406;9.984;2023-02-04T02:05:58;7.30;99.90
17994;DHT22;9122;48.406;9.984;2023-02-04T02:08:43;7.30;99.90
17994;DHT22;9122;48.406;9.984;2023-02-04T02:11:27;7.30;99.50
17994;DHT22;9122;48.406;9.984;2023-02-04T02:14:12;7.30;99.20
17994;DHT22;9122;48.406;9.984;2023-02-04T02:16:57;7.30;99.10
17994;DHT22;9122;48.406;9.984;2023-02-04T02:19:42;7.30;98.90
17994;DHT22;9122;48.406;9.984;2023-02-04T02:22:35;7.30;98.80
17994;DHT22;9122;48.406;9.984;2023-02-04T02:25:20;7.30;98.70
17994;DHT22;9122;48.406;9.984;2023-02-04T02:28:09;7.30;98.70
17994;DHT22;9122;48.406;9.984;2023-02-04T02:30:54;7.30;98.60
17994;DHT22;9122;48.406;9.984;2023-02-04T02:33:39;7.30;98.40
17994;DHT22;9122;48.406;9.984;2023-02-04T02:36:23;7.30;98.40
17994;DHT22;9122;48.406;9.984;2023-02-04T02:39:08;7.30;98.40
17994;DHT22;9122;48.406;9.984;2023-02-04T02:41:54;7.30;98.30
17994;DHT22;9122;48.406;9.984;2023-02-04T02:44:39;7.40;98.30
17994;DHT22;9122;48.406;9.984;2023-02-04T02:47:24;7.30;98.30
17994;DHT22;9122;48.406;9.984;2023-02-04T02:50:12;7.40;98.30
17994;DHT22;9122;48.406;9.984;2023-02-04T02:53:02;7.40;98.40
17994;DHT22;9122;48.406;9.984;2023-02-04T02:55:47;7.40;98.50
17994;DHT22;9122;48.406;9.984;2023-02-04T02:58:33;7.40;98.50
17994;DHT22;9122;48.406;9.984;2023-02-04T03:01:19;7.40;98.50
17994;DHT22;9122;48.406;9.984;2023-02-04T03:04:04;7.30;98.30
17994;DHT22;9122;48.406;9.984;2023-02-04T03:06:49;7.40;98.30
17994;DHT22;9122;48.406;9.984;2023-02-04T03:09:35;7.40;98.40
17994;DHT22;9122;48.406;9.984;2023-02-04T03:12:20;7.40;98.40
17994;DHT22;9122;48.406;9.984;2023-02-04T03:15:04;7.40;98.50
17994;DHT22;9122;48.406;9.984;2023-02-04T03:17:49;7.40;98.50
17994;DHT22;9122;48.406;9.984;2023-02-04T03:20:39;7.40;98.50
17994;DHT22;9122;48.406;9.984;2023-02-04T03:23:24;7.40;98.60
17994;DHT22;9122;48.406;9.984;2023-02-04T03:26:10;7.40;98.60
17994;DHT22;9122;48.406;9.984;2023-02-04T03:28:55;7.40;98.60
17994;DHT22;9122;48.406;9.984;2023-02-04T03:31:40;7.40;98.60
17994;DHT22;9122;48.406;9.984;2023-02-04T03:34:27;7.40;98.60
17994;DHT22;9122;48.406;9.984;2023-02-04T03:37:12;7.40;98.70
17994;DHT22;9122;48.406;9.984;2023-02-04T03:39:56;7.40;98.50
17994;DHT22;9122;48.406;9.984;2023-02-04T03:42:41;7.40;98.40
17994;DHT22;9122;48.406;9.984;2023-02-04T03:45:25;7.40;98.30
17994;DHT22;9122;48.406;9.984;2023-02-04T03:48:10;7.40;98.20
17994;DHT22;9122;48.406;9.984;2023-02-04T03:50:55;7.40;98.00
17994;DHT22;9122;48.406;9.984;2023-02-04T03:53:39;7.60;97.90
17994;DHT22;9122;48.406;9.984;2023-02-04T03:56:24;7.40;97.70
17994;DHT22;9122;48.406;9.984;2023-02-04T03:59:08;7.30;97.60
17994;DHT22;9122;48.406;9.984;2023-02-04T04:01:52;7.40;97.70
17994;DHT22;9122;48.406;9.984;2023-02-04T04:04:37;7.40;97.70
17994;DHT22;9122;48.406;9.984;2023-02-04T04:07:22;7.40;97.70
17994;DHT22;9122;48.406;9.984;2023-02-04T04:10:09;7.40;97.80
17994;DHT22;9122;48.406;9.984;2023-02-04T04:12:54;7.40;97.80
17994;DHT22;9122;48.406;9.984;2023-02-04T04:15:38;7.40;97.80
17994;DHT22;9122;48.406;9.984;2023-02-04T04:18:22;7.40;97.70
17994;DHT22;9122;48.406;9.984;2023-02-04T04:21:07;7.40;97.70
17994;DHT22;9122;48.406;9.984;2023-02-04T04:23:52;7.40;97.70
17994;DHT22;9122;48.406;9.984;2023-02-04T04:26:36;7.40;97.60
17994;DHT22;9122;48.406;9.984;2023-02-04T04:29:21;7.40;97.50
17994;DHT22;9122;48.406;9.984;2023-02-04T04:32:08;7.40;97.50
17994;DHT22;9122;48.406;9.984;2023-02-04T04:34:53;7.40;97.50
17994;DHT22;9122;48.406;9.984;2023-02-04T04:37:37;7.40;97.50
17994;DHT22;9122;48.406;9.984;2023-02-04T04:40:22;7.40;97.50
17994;DHT22;9122;48.406;9.984;2023-02-04T04:43:07;7.40;97.40
17994;DHT22;9122;48.406;9.984;2023-02-04T04:45:51;7.40;97.40
17994;DHT22;9122;48.406;9.984;2023-02-04T04:48:37;7.40;97.40
17994;DHT22;9122;48.406;9.984;2023-02-04T04:51:22;7.30;97.40
17994;DHT22;9122;48.406;9.984;2023-02-04T04:54:06;7.30;97.40
17994;DHT22;9122;48.406;9.984;2023-02-04T04:56:51;7.30;97.40
17994;DHT22;9122;48.406;9.984;2023-02-04T04:59:36;7.30;97.40
17994;DHT22;9122;48.406;9.984;2023-02-04T05:02:20;7.30;97.50
17994;DHT22;9122;48.406;9.984;2023-02-04T05:05:04;7.40;97.50
17994;DHT22;9122;48.406;9.984;2023-02-04T05:07:49;7.30;97.50
17994;DHT22;9122;48.406;9.984;2023-02-04T05:10:34;7.30;97.50
17994;DHT22;9122;48.406;9.984;2023-02-04T05:13:20;7.30;97.40
17994;DHT22;9122;48.406;9.984;2023-02-04T05:16:07;7.30;97.40
17994;DHT22;9122;48.406;9.984;2023-02-04T05:18:51;7.30;97.40
17994;DHT22;9122;48.406;9.984;2023-02-04T05:21:35;7.30;97.40
17994;DHT22;9122;48.406;9.984;2023-02-04T05:24:20;7.30;97.20
17994;DHT22;9122;48.406;9.984;2023-02-04T05:27:04;7.20;97.00
17994;DHT22;9122;48.406;9.984;2023-02-04T05:29:49;7.20;96.70
17994;DHT22;9122;48.406;9.984;2023-02-04T05:32:33;7.20;96.40
17994;DHT22;9122;48.406;9.984;2023-02-04T05:35:18;7.20;96.20
17994;DHT22;9122;48.406;9.984;2023-02-04T05:38:03;7.20;96.10
17994;DHT22;9122;48.406;9.984;2023-02-04T05:40:47;7.20;95.80
17994;DHT22;9122;48.406;9.984;2023-02-04T05:43:31;7.20;96.00
17994;DHT22;9122;48.406;9.984;2023-02-04T05:46:16;7.10;95.50
17994;DHT22;9122;48.406;9.984;2023-02-04T05:49:02;7.10;95.30
17994;DHT22;9122;48.406;9.984;2023-02-04T05:51:47;7.10;95.40
17994;DHT22;9122;48.406;9.984;2023-02-04T05:54:31;7.10;95.40
17994;DHT22;9122;48.406;9.984;2023-02-04T05:57:15;7.10;95.40
17994;DHT22;9122;48.406;9.984;2023-02-04T06:00:00;7.10;95.40
17994;DHT22;9122;48.406;9.984;2023-02-04T06:02:44;7.00;95.40
17994;DHT22;9122;48.406;9.984;2023-02-04T06:05:29;7.00;95.40
17994;DHT22;9122;48.406;9.984;2023-02-04T06:08:14;7.00;95.40
17994;DHT22;9122;48.406;9.984;2023-02-04T06:10:58;7.00;95.40
17994;DHT22;9122;48.406;9.984;2023-02-04T06:13:43;7.00;95.30
17994;DHT22;9122;48.406;9.984;2023-02-04T06:16:28;7.00;95.70
17994;DHT22;9122;48.406;9.984;2023-02-04T06:19:12;7.00;95.40
17994;DHT22;9122;48.406;9.984;2023-02-04T06:21:57;7.00;95.30
17994;DHT22;9122;48.406;9.984;2023-02-04T06:24:41;7.00;95.20
17994;DHT22;9122;48.406;9.984;2023-02-04T06:27:25;7.00;95.20
17994;DHT22;9122;48.406;9.984;2023-02-04T06:30:10;7.00;95.10
17994;DHT22;9122;48.406;9.984;2023-02-04T06:32:54;7.00;95.00
17994;DHT22;9122;48.406;9.984;2023-02-04T06:35:39;7.00;94.80
17994;DHT22;9122;48.406;9.984;2023-02-04T06:38:23;7.00;94.70
17994;DHT22;9122;48.406;9.984;2023-02-04T06:41:07;7.00;94.70
17994;DHT22;9122;48.406;9.984;2023-02-04T06:43:52;6.90;94.60
17994;DHT22;9122;48.406;9.984;2023-02-04T06:46:39;6.90;94.60
17994;DHT22;9122;48.406;9.984;2023-02-04T06:49:24;6.90;94.60
17994;DHT22;9122;48.406;9.984;2023-02-04T06:52:08;6.90;94.60
17994;DHT22;9122;48.406;9.984;2023-02-04T06:54:53;6.90;94.60
17994;DHT22;9122;48.406;9.984;2023-02-04T06:57:37;6.90;94.60
17994;DHT22;9122;48.406;9.984;2023-02-04T07:00:22;6.90;94.60
17994;DHT22;9122;48.406;9.984;2023-02-04T07:03:07;6.90;94.60
17994;DHT22;9122;48.406;9.984;2023-02-04T07:05:51;6.90;94.50
17994;DHT22;9122;48.406;9.984;2023-02-04T07:08:36;6.90;94.30
17994;DHT22;9122;48.406;9.984;2023-02-04T07:11:21;6.90;94.10
17994;DHT22;9122;48.406;9.984;2023-02-04T07:14:05;6.90;94.10
17994;DHT22;9122;48.406;9.984;2023-02-04T07:16:50;6.90;94.10
17994;DHT22;9122;48.406;9.984;2023-02-04T07:19:36;7.00;94.00
17994;DHT22;9122;48.406;9.984;2023-02-04T07:22:23;6.90;94.00
17994;DHT22;9122;48.406;9.984;2023-02-04T07:25:08;6.90;93.80
17994;DHT22;9122;48.406;9.984;2023-02-04T07:27:53;6.90;93.80
17994;DHT22;9122;48.406;9.984;2023-02-04T07:30:39;6.90;93.80
17994;DHT22;9122;48.406;9.984;2023-02-04T07:33:23;6.80;93.80
17994;DHT22;9122;48.406;9.984;2023-02-04T07:36:07;6.80;93.70
17994;DHT22;9122;48.406;9.984;2023-02-04T07:38:52;6.80;93.70
17994;DHT22;9122;48.406;9.984;2023-02-04T07:41:37;6.90;93.80
17994;DHT22;9122;48.406;9.984;2023-02-04T07:44:21;6.90;93.80
17994;DHT22;9122;48.406;9.984;2023-02-04T07:47:06;6.90;93.70
17994;DHT22;9122;48.406;9.984;2023-02-04T07:49:50;6.90;93.70
17994;DHT22;9122;48.406;9.984;2023-02-04T07:52:35;6.90;93.70
17994;DHT22;9122;48.406;9.984;2023-02-04T07:55:20;7.00;93.70
17994;DHT22;9122;48.406;9.984;2023-02-04T07:58:04;7.00;93.70
17994;DHT22;9122;48.406;9.984;2023-02-04T08:00:49;7.10;93.60
17994;DHT22;9122;48.406;9.984;2023-02-04T08:03:33;7.00;93.60
17994;DHT22;9122;48.406;9.984;2023-02-04T08:06:19;7.00;93.70
17994;DHT22;9122;48.406;9.984;2023-02-04T08:09:03;7.00;93.70
17994;DHT22;9122;48.406;9.984;2023-02-04T08:11:48;7.00;93.80
17994;DHT22;9122;48.406;9.984;2023-02-04T08:14:34;6.90;93.80
17994;DHT22;9122;48.406;9.984;2023-02-04T08:17:18;7.00;93.80
17994;DHT22;9122;48.406;9.984;2023-02-04T08:20:03;7.00;93.90
17994;DHT22;9122;48.406;9.984;2023-02-04T08:22:47;7.00;93.90
17994;DHT22;9122;48.406;9.984;2023-02-04T08:25:32;7.00;94.00
17994;DHT22;9122;48.406;9.984;2023-02-04T08:28:17;7.00;93.90
17994;DHT22;9122;48.406;9.984;2023-02-04T08:31:01;7.00;93.60
17994;DHT22;9122;48.406;9.984;2023-02-04T08:33:46;7.00;93.50
17994;DHT22;9122;48.406;9.984;2023-02-04T08:36:32;7.00;93.40
17994;DHT22;9122;48.406;9.984;2023-02-04T08:39:17;7.00;93.30
17994;DHT22;9122;48.406;9.984;2023-02-04T08:42:03;7.00;93.20
17994;DHT22;9122;48.406;9.984;2023-02-04T08:44:48;7.00;93.10
17994;DHT22;9122;48.406;9.984;2023-02-04T08:47:33;7.00;93.00
17994;DHT22;9122;48.406;9.984;2023-02-04T08:50:17;7.10;92.70
17994;DHT22;9122;48.406;9.984;2023-02-04T08:53:02;7.10;92.60
17994;DHT22;9122;48.406;9.984;2023-02-04T08:55:46;7.10;92.50
17994;DHT22;9122;48.406;9.984;2023-02-04T08:58:31;7.10;92.50
17994;DHT22;9122;48.406;9.984;2023-02-04T09:01:16;7.10;92.40
17994;DHT22;9122;48.406;9.984;2023-02-04T09:04:00;7.10;92.40
17994;DHT22;9122;48.406;9.984;2023-02-04T09:06:45;7.20;92.40
17994;DHT22;9122;48.406;9.984;2023-02-04T09:09:30;7.20;92.30
17994;DHT22;9122;48.406;9.984;2023-02-04T09:12:15;7.20;92.20
17994;DHT22;9122;48.406;9.984;2023-02-04T09:15:00;7.20;92.10
17994;DHT22;9122;48.406;9.984;2023-02-04T09:17:44;7.20;92.10
17994;DHT22;9122;48.406;9.984;2023-02-04T09:20:29;7.20;92.10
17994;DHT22;9122;48.406;9.984;2023-02-04T09:23:14;7.20;92.10
17994;DHT22;9122;48.406;9.984;2023-02-04T09:26:00;7.30;92.10
17994;DHT22;9122;48.406;9.984;2023-02-04T09:28:44;7.40;91.90
17994;DHT22;9122;48.406;9.984;2023-02-04T09:31:30;7.50;91.90
17994;DHT22;9122;48.406;9.984;2023-02-04T09:34:15;7.50;91.70
17994;DHT22;9122;48.406;9.984;2023-02-04T09:36:59;7.60;91.60
17994;DHT22;9122;48.406;9.984;2023-02-04T09:39:44;7.60;91.50
17994;DHT22;9122;48.406;9.984;2023-02-04T09:42:28;7.70;91.40
17994;DHT22;9122;48.406;9.984;2023-02-04T09:45:19;7.70;91.30
17994;DHT22;9122;48.406;9.984;2023-02-04T09:48:05;7.70;91.20
17994;DHT22;9122;48.406;9.984;2023-02-04T09:50:51;7.70;91.10
17994;DHT22;9122;48.406;9.984;2023-02-04T09:53:40;7.70;91.20
17994;DHT22;9122;48.406;9.984;2023-02-04T09:56:34;7.70;91.20
17994;DHT22;9122;48.406;9.984;2023-02-04T09:59:22;7.80;91.20
17994;DHT22;9122;48.406;9.984;2023-02-04T10:02:21;7.90;91.20
17994;DHT22;9122;48.406;9.984;2023-02-04T10:05:15;7.80;91.00
17994;DHT22;9122;48.406;9.984;2023-02-04T10:08:00;7.80;90.90
17994;DHT22;9122;48.406;9.984;2023-02-04T10:10:46;7.80;91.00
17994;DHT22;9122;48.406;9.984;2023-02-04T10:13:40;8.00;91.20
17994;DHT22;9122;48.406;9.984;2023-02-04T10:16:30;8.10;91.30
17994;DHT22;9122;48.406;9.984;2023-02-04T10:19:15;8.20;91.20
17994;DHT22;9122;48.406;9.984;2023-02-04T10:22:02;8.30;91.00
17994;DHT22;9122;48.406;9.984;2023-02-04T10:24:47;8.30;90.90
17994;DHT22;9122;48.406;9.984;2023-02-04T10:27:31;8.40;90.80
17994;DHT22;9122;48.406;9.984;2023-02-04T10:33:22;8.50;90.60
17994;DHT22;9122;48.406;9.984;2023-02-04T10:36:07;8.60;90.50
17994;DHT22;9122;48.406;9.984;2023-02-04T10:39:03;8.60;90.50
17994;DHT22;9122;48.406;9.984;2023-02-04T10:41:58;8.60;90.20
17994;DHT22;9122;48.406;9.984;2023-02-04T10:44:46;8.60;90.00
17994;DHT22;9122;48.406;9.984;2023-02-04T10:47:30;8.60;89.70
17994;DHT22;9122;48.406;9.984;2023-02-04T10:50:20;8.50;89.30
17994;DHT22;9122;48.406;9.984;2023-02-04T10:53:08;8.50;89.20
17994;DHT22;9122;48.406;9.984;2023-02-04T10:56:17;8.50;89.40
17994;DHT22;9122;48.406;9.984;2023-02-04T10:59:04;8.40;90.00
17994;DHT22;9122;48.406;9.984;2023-02-04T11:01:48;8.40;90.10
17994;DHT22;9122;48.406;9.984;2023-02-04T11:04:33;8.40;90.30
17994;DHT22;9122;48.406;9.984;2023-02-04T11:07:19;8.40;90.30
17994;DHT22;9122;48.406;9.984;2023-02-04T11:10:05;8.40;90.40
17994;DHT22;9122;48.406;9.984;2023-02-04T11:18:26;8.40;90.60
17994;DHT22;9122;48.406;9.984;2023-02-04T11:30:20;8.40;90.20
17994;DHT22;9122;48.406;9.984;2023-02-04T11:33:21;8.40;90.00
17994;DHT22;9122;48.406;9.984;2023-02-04T11:36:09;8.40;90.00
17994;DHT22;9122;48.406;9.984;2023-02-04T11:38:54;8.50;90.10
17994;DHT22;9122;48.406;9.984;2023-02-04T11:41:39;8.50;90.00
17994;DHT22;9122;48.406;9.984;2023-02-04T11:44:27;8.60;90.10
17994;DHT22;9122;48.406;9.984;2023-02-04T11:47:12;8.60;90.20
17994;DHT22;9122;48.406;9.984;2023-02-04T11:49:58;8.60;90.10
17994;DHT22;9122;48.406;9.984;2023-02-04T11:52:45;8.60;90.10
17994;DHT22;9122;48.406;9.984;2023-02-04T11:55:31;8.60;89.80
17994;DHT22;9122;48.406;9.984;2023-02-04T11:58:19;8.70;89.90
17994;DHT22;9122;48.406;9.984;2023-02-04T12:01:30;8.80;90.10
17994;DHT22;9122;48.406;9.984;2023-02-04T12:04:23;8.80;89.80
17994;DHT22;9122;48.406;9.984;2023-02-04T12:07:11;8.90;89.40
17994;DHT22;9122;48.406;9.984;2023-02-04T12:09:56;8.90;88.90
17994;DHT22;9122;48.406;9.984;2023-02-04T12:12:52;8.90;88.60
17994;DHT22;9122;48.406;9.984;2023-02-04T12:15:38;8.80;88.30
17994;DHT22;9122;48.406;9.984;2023-02-04T12:18:23;8.80;88.20
17994;DHT22;9122;48.406;9.984;2023-02-04T12:21:10;8.80;88.20
17994;DHT22;9122;48.406;9.984;2023-02-04T12:23:55;8.80;88.20
17994;DHT22;9122;48.406;9.984;2023-02-04T12:26:40;8.80;87.60
17994;DHT22;9122;48.406;9.984;2023-02-04T12:29:24;8.70;87.30
17994;DHT22;9122;48.406;9.984;2023-02-04T12:32:09;8.70;87.60
17994;DHT22;9122;48.406;9.984;2023-02-04T12:34:53;8.70;87.80
17994;DHT22;9122;48.406;9.984;2023-02-04T12:37:38;8.70;87.70
17994;DHT22;9122;48.406;9.984;2023-02-04T12:40:22;8.70;87.70
17994;DHT22;9122;48.406;9.984;2023-02-04T12:43:07;8.60;87.90
17994;DHT22;9122;48.406;9.984;2023-02-04T12:45:51;8.60;88.30
17994;DHT22;9122;48.406;9.984;2023-02-04T12:48:36;8.70;88.30
17994;DHT22;9122;48.406;9.984;2023-02-04T12:51:24;8.60;88.40
17994;DHT22;9122;48.406;9.984;2023-02-04T12:54:08;8.60;88.70
17994;DHT22;9122;48.406;9.984;2023-02-04T12:56:52;8.60;88.80
17994;DHT22;9122;48.406;9.984;2023-02-04T12:59:41;8.60;89.10
17994;DHT22;9122;48.406;9.984;2023-02-04T13:02:26;8.60;89.00
17994;DHT22;9122;48.406;9.984;2023-02-04T13:05:11;8.60;89.00
17994;DHT22;9122;48.406;9.984;2023-02-04T13:07:57;8.60;88.00
17994;DHT22;9122;48.406;9.984;2023-02-04T13:10:41;8.70;87.30
17994;DHT22;9122;48.406;9.984;2023-02-04T13:13:26;8.70;87.10
17994;DHT22;9122;48.406;9.984;2023-02-04T13:16:10;8.70;86.90
17994;DHT22;9122;48.406;9.984;2023-02-04T13:18:56;8.60;87.00
17994;DHT22;9122;48.406;9.984;2023-02-04T13:21:40;8.60;87.00
17994;DHT22;9122;48.406;9.984;2023-02-04T13:24:25;8.60;86.80
17994;DHT22;9122;48.406;9.984;2023-02-04T13:27:10;8.60;86.60
17994;DHT22;9122;48.406;9.984;2023-02-04T13:29:54;8.60;86.40
17994;DHT22;9122;48.406;9.984;2023-02-04T13:32:39;8.60;86.40
17994;DHT22;9122;48.406;9.984;2023-02-04T13:35:24;8.60;85.70
17994;DHT22;9122;48.406;9.984;2023-02-04T13:38:09;8.60;85.30
17994;DHT22;9122;48.406;9.984;2023-02-04T13:40:53;8.60;85.00
17994;DHT22;9122;48.406;9.984;2023-02-04T13:43:38;8.60;84.70
17994;DHT22;9122;48.406;9.984;2023-02-04T13:46:23;8.60;84.60
17994;DHT22;9122;48.406;9.984;2023-02-04T13:49:07;8.60;84.10
17994;DHT22;9122;48.406;9.984;2023-02-04T13:51:52;8.60;83.80
17994;DHT22;9122;48.406;9.984;2023-02-04T13:54:37;8.60;83.90
17994;DHT22;9122;48.406;9.984;2023-02-04T13:57:21;8.70;83.80
17994;DHT22;9122;48.406;9.984;2023-02-04T14:00:06;8.70;83.50
17994;DHT22;9122;48.406;9.984;2023-02-04T14:02:51;8.70;83.40
17994;DHT22;9122;48.406;9.984;2023-02-04T14:05:42;8.70;83.40
17994;DHT22;9122;48.406;9.984;2023-02-04T14:08:26;8.70;83.50
17994;DHT22;9122;48.406;9.984;2023-02-04T14:11:10;8.60;83.40
17994;DHT22;9122;48.406;9.984;2023-02-04T14:13:54;8.60;83.60
17994;DHT22;9122;48.406;9.984;2023-02-04T14:16:39;8.60;83.50
17994;DHT22;9122;48.406;9.984;2023-02-04T14:19:24;8.50;83.20
17994;DHT22;9122;48.406;9.984;2023-02-04T14:22:10;8.50;83.20
17994;DHT22;9122;48.406;9.984;2023-02-04T14:24:56;8.50;83.10
17994;DHT22;9122;48.406;9.984;2023-02-04T14:27:41;8.40;83.10
17994;DHT22;9122;48.406;9.984;2023-02-04T14:30:27;8.50;83.40
17994;DHT22;9122;48.406;9.984;2023-02-04T14:33:11;8.40;83.30
17994;DHT22;9122;48.406;9.984;2023-02-04T14:35:58;8.40;83.40
17994;DHT22;9122;48.406;9.984;2023-02-04T14:38:43;8.40;83.40
17994;DHT22;9122;48.406;9.984;2023-02-04T14:41:27;8.40;83.50
17994;DHT22;9122;48.406;9.984;2023-02-04T14:44:14;8.50;83.50
17994;DHT22;9122;48.406;9.984;2023-02-04T14:47:03;8.50;83.50
17994;DHT22;9122;48.406;9.984;2023-02-04T14:49:48;8.50;83.40
17994;DHT22;9122;48.406;9.984;2023-02-04T14:52:32;8.50;83.50
17994;DHT22;9122;48.406;9.984;2023-02-04T14:55:17;8.50;83.70
17994;DHT22;9122;48.406;9.984;2023-02-04T14:58:02;8.50;84.10
17994;DHT22;9122;48.406;9.984;2023-02-04T15:00:46;9.50;84.90
17994;DHT22;9122;48.406;9.984;2023-02-04T15:03:31;8.50;84.20
17994;DHT22;9122;48.406;9.984;2023-02-04T15:06:15;8.40;84.10
17994;DHT22;9122;48.406;9.984;2023-02-04T15:08:59;8.40;84.10
17994;DHT22;9122;48.406;9.984;2023-02-04T15:11:44;8.40;84.10
17994;DHT22;9122;48.406;9.984;2023-02-04T15:14:28;8.40;84.20
17994;DHT22;9122;48.406;9.984;2023-02-04T15:17:13;8.40;84.10
17994;DHT22;9122;48.406;9.984;2023-02-04T15:19:57;8.40;84.20
17994;DHT22;9122;48.406;9.984;2023-02-04T15:22:45;8.40;84.30
17994;DHT22;9122;48.406;9.984;2023-02-04T15:25:34;8.40;84.20
17994;DHT22;9122;48.406;9.984;2023-02-04T15:28:19;8.40;84.20
17994;DHT22;9122;48.406;9.984;2023-02-04T15:31:04;8.40;84.20
17994;DHT22;9122;48.406;9.984;2023-02-04T15:33:48;8.40;84.30
17994;DHT22;9122;48.406;9.984;2023-02-04T15:36:33;8.40;84.00
17994;DHT22;9122;48.406;9.984;2023-02-04T15:39:18;8.40;83.70
17994;DHT22;9122;48.406;9.984;2023-02-04T15:42:02;8.40;83.40
17994;DHT22;9122;48.406;9.984;2023-02-04T15:44:47;8.30;83.30
17994;DHT22;9122;48.406;9.984;2023-02-04T15:47:31;8.30;83.20
17994;DHT22;9122;48.406;9.984;2023-02-04T15:50:16;8.30;83.10
17994;DHT22;9122;48.406;9.984;2023-02-04T15:53:00;8.30;83.10
17994;DHT22;9122;48.406;9.984;2023-02-04T15:55:45;8.20;83.20
17994;DHT22;9122;48.406;9.984;2023-02-04T15:58:30;8.20;83.50
17994;DHT22;9122;48.406;9.984;2023-02-04T16:01:14;8.30;83.50
17994;DHT22;9122;48.406;9.984;2023-02-04T16:03:59;8.10;83.30
17994;DHT22;9122;48.406;9.984;2023-02-04T16:06:44;8.10;83.20
17994;DHT22;9122;48.406;9.984;2023-02-04T16:09:28;8.10;83.20
17994;DHT22;9122;48.406;9.984;2023-02-04T16:12:12;8.10;83.50
17994;DHT22;9122;48.406;9.984;2023-02-04T16:14:57;8.10;83.60
17994;DHT22;9122;48.406;9.984;2023-02-04T16:17:41;8.10;83.90
17994;DHT22;9122;48.406;9.984;2023-02-04T16:20:26;8.00;84.50
17994;DHT22;9122;48.406;9.984;2023-02-04T16:23:10;8.00;85.60
17994;DHT22;9122;48.406;9.984;2023-02-04T16:25:54;8.00;86.20
17994;DHT22;9122;48.406;9.984;2023-02-04T16:28:39;7.90;86.40
17994;DHT22;9122;48.406;9.984;2023-02-04T16:31:24;7.90;86.70
17994;DHT22;9122;48.406;9.984;2023-02-04T16:34:08;7.80;86.90
17994;DHT22;9122;48.406;9.984;2023-02-04T16:36:53;7.80;87.20
17994;DHT22;9122;48.406;9.984;2023-02-04T16:39:39;7.80;87.40
17994;DHT22;9122;48.406;9.984;2023-02-04T16:42:25;7.70;87.40
17994;DHT22;9122;48.406;9.984;2023-02-04T16:45:14;7.70;87.70
17994;DHT22;9122;48.406;9.984;2023-02-04T16:47:58;7.70;87.90
17994;DHT22;9122;48.406;9.984;2023-02-04T16:50:43;7.60;88.20
17994;DHT22;9122;48.406;9.984;2023-02-04T16:53:28;7.60;88.40
17994;DHT22;9122;48.406;9.984;2023-02-04T16:56:12;7.60;88.70
17994;DHT22;9122;48.406;9.984;2023-02-04T16:58:57;7.60;88.90
17994;DHT22;9122;48.406;9.984;2023-02-04T17:01:42;7.60;89.00
17994;DHT22;9122;48.406;9.984;2023-02-04T17:04:26;7.50;89.20
17994;DHT22;9122;48.406;9.984;2023-02-04T17:07:11;7.50;89.40
17994;DHT22;9122;48.406;9.984;2023-02-04T17:09:57;7.50;90.10
17994;DHT22;9122;48.406;9.984;2023-02-04T17:12:42;7.40;89.70
17994;DHT22;9122;48.406;9.984;2023-02-04T17:15:29;7.40;89.80
17994;DHT22;9122;48.406;9.984;2023-02-04T17:18:16;7.40;89.90
17994;DHT22;9122;48.406;9.984;2023-02-04T17:21:01;7.40;90.00
17994;DHT22;9122;48.406;9.984;2023-02-04T17:23:45;7.40;90.10
17994;DHT22;9122;48.406;9.984;2023-02-04T17:26:31;7.40;90.10
17994;DHT22;9122;48.406;9.984;2023-02-04T17:29:20;7.30;90.10
17994;DHT22;9122;48.406;9.984;2023-02-04T17:32:06;7.30;90.10
17994;DHT22;9122;48.406;9.984;2023-02-04T17:34:55;7.40;90.00
17994;DHT22;9122;48.406;9.984;2023-02-04T17:37:40;7.30;90.00
17994;DHT22;9122;48.406;9.984;2023-02-04T17:40:24;7.30;90.00
17994;DHT22;9122;48.406;9.984;2023-02-04T17:43:09;7.20;90.10
17994;DHT22;9122;48.406;9.984;2023-02-04T17:45:54;7.20;90.10
17994;DHT22;9122;48.406;9.984;2023-02-04T17:48:38;7.20;90.10
17994;DHT22;9122;48.406;9.984;2023-02-04T17:51:23;7.20;90.20
17994;DHT22;9122;48.406;9.984;2023-02-04T17:54:10;7.20;90.30
17994;DHT22;9122;48.406;9.984;2023-02-04T17:56:56;7.20;90.40
17994;DHT22;9122;48.406;9.984;2023-02-04T17:59:42;7.20;90.50
17994;DHT22;9122;48.406;9.984;2023-02-04T18:02:29;7.20;90.60
17994;DHT22;9122;48.406;9.984;2023-02-04T18:05:22;7.20;90.60
17994;DHT22;9122;48.406;9.984;2023-02-04T18:08:24;7.10;90.60
17994;DHT22;9122;48.406;9.984;2023-02-04T18:11:25;7.10;90.60
17994;DHT22;9122;48.406;9.984;2023-02-04T18:14:26;7.20;90.70
17994;DHT22;9122;48.406;9.984;2023-02-04T18:17:13;7.10;90.70
17994;DHT22;9122;48.406;9.984;2023-02-04T18:19:58;7.10;90.50
17994;DHT22;9122;48.406;9.984;2023-02-04T18:22:43;7.10;90.50